Carnival Splendor — 3EUS — position and weather

sailwx.info

Track history (hours):
 
Tides and Currents Weather Stations Pressure Air Temp Water Temp Dewpoint Dewpoint Depression Visibility Wind Speed Wind Dir Waves Ship Positions

Carnival Splendor

Last reported at 2019-Mar-24 23:00 UTC. Time now 2019-Mar-26 00:26 UTC.
Position N 26°36' W 114°24'.

Length 290 m; draft 8.4 m.

Type: Ship. MMSI: 372808000.

Wind from 310 at 20 knots

Barometer 1017.0 mb
Air temperature 17.0 ° C
Visibility: greater than 10.8 NM
Dewpoint 9.4 ° C
Water temperature 16.0 ° C

Date/timePositionNaut miles runAvg speedWind from/ knotsBaromVisibWave heightAir tempDewpointWater temp
2019-Mar-24 23:00N 26°36' W 114°24'36920.2 310 / 201017.010.8 17.0 9.416.0
2019-Mar-24 04:41N 32°05' W 117°34'420.6
2019-Mar-24 04:31N 32°09' W 117°36'1020.9
2019-Mar-24 04:00N 32°19' W 117°40'1020.7
2019-Mar-24 03:30N 32°28' W 117°44'1020.8
2019-Mar-24 03:01N 32°38' W 117°49'1020.6
2019-Mar-24 02:30N 32°47' W 117°55'1020.8
2019-Mar-24 02:01N 32°57' W 117°59'1020.7
2019-Mar-24 01:30N 33°07' W 118°01'1020.8
2019-Mar-24 01:00N 33°17' W 118°05'1020.2
2019-Mar-24 00:31N 33°26' W 118°09'917.8
2019-Mar-24 00:00N 33°35' W 118°13'612.1
2019-Mar-23 23:30N 33°41' W 118°12'4 8.5
2019-Mar-23 23:00N 33°45' W 118°11'0 0.1
2019-Mar-23 22:29N 33°45' W 118°11'0 0.0
2019-Mar-23 21:59N 33°45' W 118°11'0 0.0
2019-Mar-23 21:29N 33°45' W 118°11'0 0.0
2019-Mar-23 20:59N 33°45' W 118°11'0 0.0
2019-Mar-23 20:28N 33°45' W 118°11'0 0.0
2019-Mar-23 19:58N 33°45' W 118°11'0 0.0
2019-Mar-23 19:25N 33°45' W 118°11'0 0.0
2019-Mar-23 18:58N 33°45' W 118°11'0 0.0
2019-Mar-23 18:30N 33°45' W 118°11'0 0.0
2019-Mar-23 18:00N 33°45' W 118°11'0 0.0
2019-Mar-23 17:30N 33°45' W 118°11'0 0.0
2019-Mar-23 17:00N 33°45' W 118°11'0 0.0
2019-Mar-23 16:30N 33°45' W 118°11'0 0.0
2019-Mar-23 15:56N 33°45' W 118°11'0 0.0
2019-Mar-23 15:26N 33°45' W 118°11'0 0.0
2019-Mar-23 14:59N 33°45' W 118°11'0 0.0
2019-Mar-23 14:29N 33°45' W 118°11'0 0.0
2019-Mar-23 13:59N 33°45' W 118°11'0 0.5
2019-Mar-23 13:31N 33°45' W 118°11'3 6.3
2019-Mar-23 13:01N 33°42' W 118°11'611.0
2019-Mar-23 12:31N 33°36' W 118°10'815.4
2019-Mar-23 12:00N 33°29' W 118°07'714.3
2019-Mar-23 11:30N 33°22' W 118°04'917.8
2019-Mar-23 11:00N 33°14' W 118°01'8507.9
2019-Mar-23 11:00N 33°06' W 118°00'2 3.6 310 / 151020.010.8 15.0 9.215.0
2019-Mar-23 10:30N 33°05' W 117°58'918.0
2019-Mar-23 10:00N 32°57' W 117°53'917.7
2019-Mar-23 09:30N 32°49' W 117°50'917.6
2019-Mar-23 09:00N 32°40' W 117°46'917.7
2019-Mar-23 08:30N 32°32' W 117°43'917.9
2019-Mar-23 08:00N 32°24' W 117°39'917.5
2019-Mar-23 07:30N 32°15' W 117°36'917.6
2019-Mar-23 07:00N 32°07' W 117°32'917.4
2019-Mar-23 06:31N 31°59' W 117°29'1019.3
2019-Mar-23 05:58N 31°49' W 117°25'30419.1
2019-Mar-22 14:00N 27°12' W 115°00'6917.2 300 / 321015.010.8 15.0 6.918.0
2019-Mar-22 10:00N 26°18' W 114°12'13719.6 330 / 351017.010.8 16.010.417.0
2019-Mar-22 03:00N 24°36' W 112°30'2929.1 310 / 251012.0 5.4 17.013.516.0
2019-Mar-22 02:00N 24°12' W 112°12'6115.3 310 / 251015.010.8
2019-Mar-21 22:00N 23°36' W 111°18'15722.4 300 / 251013.010.8 20.013.019.0
2019-Mar-21 15:00N 22°12' W 108°54'197 7.1 220 / 21011.010.8 21.017.820.0
2019-Mar-20 11:00N 20°48' W 105°42'156 6.2 020 / 101013.010.8 22.013.420.0
2019-Mar-19 10:00N 23°00' W 107°12'177 8.9 340 / 101012.010.8 21.010.021.0
2019-Mar-18 14:00N 23°12' W 110°24'55820.2 360 / 111011.010.8 18.012.720.0
2019-Mar-17 10:26N 30°28' W 116°53'1022.8
2019-Mar-17 10:00N 30°38' W 116°57'161132.3
2019-Mar-17 10:00N 30°24' W 116°48'2755.5 330 / 51014.010.8 15.0 9.216.0
2019-Mar-17 09:30N 30°48' W 117°01'1122.6
2019-Mar-17 09:01N 30°59' W 117°06'1122.2
2019-Mar-17 08:30N 31°09' W 117°10'1122.0
2019-Mar-17 08:01N 31°20' W 117°15'1122.0
2019-Mar-17 07:30N 31°30' W 117°19'1122.2
2019-Mar-17 07:00N 31°41' W 117°24'1122.3
2019-Mar-17 06:30N 31°51' W 117°28'1122.3
2019-Mar-17 06:01N 32°01' W 117°33'1122.2
2019-Mar-17 05:30N 32°12' W 117°37'1122.2
2019-Mar-17 05:00N 32°23' W 117°41'1121.9
2019-Mar-17 04:31N 32°33' W 117°46'1121.1
2019-Mar-17 04:01N 32°43' W 117°50'1020.9
2019-Mar-17 03:31N 32°52' W 117°55'1020.9
2019-Mar-17 03:01N 33°02' W 117°59'1020.8
2019-Mar-17 02:31N 33°12' W 118°03'1021.0
2019-Mar-17 02:01N 33°22' W 118°07'1021.0
2019-Mar-17 01:31N 33°32' W 118°12'714.3
2019-Mar-17 01:00N 33°39' W 118°12'510.9
2019-Mar-17 00:30N 33°44' W 118°11'1 1.7
2019-Mar-17 00:00N 33°45' W 118°11'0 0.0
2019-Mar-16 23:29N 33°45' W 118°11'0 0.0
2019-Mar-16 22:59N 33°45' W 118°11'0 0.0
2019-Mar-16 22:29N 33°45' W 118°11'0 0.0
2019-Mar-16 21:59N 33°45' W 118°11'0 0.0
2019-Mar-16 21:28N 33°45' W 118°11'0 0.0
2019-Mar-16 20:58N 33°45' W 118°11'0 0.0
2019-Mar-16 20:28N 33°45' W 118°11'0 0.0
2019-Mar-16 19:58N 33°45' W 118°11'0 0.0
2019-Mar-16 19:28N 33°45' W 118°11'0 0.0
2019-Mar-16 19:00N 33°45' W 118°11'0 0.0
2019-Mar-16 18:30N 33°45' W 118°11'0 0.0
2019-Mar-16 18:00N 33°45' W 118°11'0 0.0
2019-Mar-16 17:30N 33°45' W 118°11'0 0.0
2019-Mar-16 17:00N 33°45' W 118°11'0 0.0
2019-Mar-16 16:29N 33°45' W 118°11'0 0.0
2019-Mar-16 15:59N 33°45' W 118°11'0 0.0
2019-Mar-16 15:29N 33°45' W 118°11'0 0.0
2019-Mar-16 14:59N 33°45' W 118°11'0 0.0
2019-Mar-16 14:29N 33°45' W 118°11'0 0.0
2019-Mar-16 13:58N 33°45' W 118°11'0 0.4
2019-Mar-16 13:30N 33°45' W 118°11'3 6.6
2019-Mar-16 13:00N 33°42' W 118°11'611.3
2019-Mar-16 12:30N 33°36' W 118°10'815.3
2019-Mar-16 12:00N 33°29' W 118°07'713.2
2019-Mar-16 11:31N 33°23' W 118°04'918.2
2019-Mar-16 11:00N 33°14' W 118°00'918.5
2019-Mar-16 10:31N 33°05' W 117°57'918.5
2019-Mar-16 10:01N 32°57' W 117°53'918.3
2019-Mar-16 09:31N 32°48' W 117°49'918.4
2019-Mar-16 09:01N 32°39' W 117°46'917.9
2019-Mar-16 08:31N 32°31' W 117°42'917.8
2019-Mar-16 08:01N 32°22' W 117°39'917.6
2019-Mar-16 07:30N 32°14' W 117°35'917.5
2019-Mar-16 07:00N 32°06' W 117°32'917.5
2019-Mar-16 06:30N 31°58' W 117°28'917.4
2019-Mar-16 06:01N 31°50' W 117°25'917.4
2019-Mar-16 05:31N 31°41' W 117°22'917.4
2019-Mar-16 05:00N 31°33' W 117°18'1019.2
2019-Mar-16 04:30N 31°24' W 117°14'1019.4
2019-Mar-16 03:59N 31°15' W 117°10'919.2
2019-Mar-16 03:30N 31°06' W 117°07'1119.4
2019-Mar-16 02:56N 30°55' W 117°02'3920.3
2019-Mar-16 01:00N 30°18' W 116°48'20318.5 330 / 151012.010.8 16.012.415.0
2019-Mar-15 14:00N 27°18' W 115°00'27119.4 020 / 251010.010.8 16.010.415.0
2019-Mar-15 00:00N 23°54' W 111°42'   270 / 211010.010.8 18.012.718.0
Track history (hours):
 
Tides and Currents Weather Stations Pressure Air Temp Water Temp Dewpoint Dewpoint Depression Visibility Wind Speed Wind Dir Waves Ship Positions

Carnival Splendor

Last reported at 2019-Mar-24 23:00 UTC. Time now 2019-Mar-26 00:26 UTC.
Position N 26°36' W 114°24'.

Length 290 m; draft 8.4 m.

Type: Ship. MMSI: 372808000.

Wind from 310 at 20 knots

Barometer 1017.0 mb
Air temperature 17.0 ° C
Visibility: greater than 10.8 NM
Dewpoint 9.4 ° C
Water temperature 16.0 ° C

Date/timePositionNaut miles runAvg speedWind from/ knotsBaromVisibWave heightAir tempDewpointWater temp
2019-Mar-24 23:00N 26°36' W 114°24'36920.2 310 / 201017.010.8 17.0 9.416.0
2019-Mar-24 04:41N 32°05' W 117°34'420.6
2019-Mar-24 04:31N 32°09' W 117°36'1020.9
2019-Mar-24 04:00N 32°19' W 117°40'1020.7
2019-Mar-24 03:30N 32°28' W 117°44'1020.8
2019-Mar-24 03:01N 32°38' W 117°49'1020.6
2019-Mar-24 02:30N 32°47' W 117°55'1020.8
2019-Mar-24 02:01N 32°57' W 117°59'1020.7
2019-Mar-24 01:30N 33°07' W 118°01'1020.8
2019-Mar-24 01:00N 33°17' W 118°05'1020.2
2019-Mar-24 00:31N 33°26' W 118°09'917.8
2019-Mar-24 00:00N 33°35' W 118°13'612.1
2019-Mar-23 23:30N 33°41' W 118°12'4 8.5
2019-Mar-23 23:00N 33°45' W 118°11'0 0.1
2019-Mar-23 22:29N 33°45' W 118°11'0 0.0
2019-Mar-23 21:59N 33°45' W 118°11'0 0.0
2019-Mar-23 21:29N 33°45' W 118°11'0 0.0
2019-Mar-23 20:59N 33°45' W 118°11'0 0.0
2019-Mar-23 20:28N 33°45' W 118°11'0 0.0
2019-Mar-23 19:58N 33°45' W 118°11'0 0.0
2019-Mar-23 19:25N 33°45' W 118°11'0 0.0
2019-Mar-23 18:58N 33°45' W 118°11'0 0.0
2019-Mar-23 18:30N 33°45' W 118°11'0 0.0
2019-Mar-23 18:00N 33°45' W 118°11'0 0.0
2019-Mar-23 17:30N 33°45' W 118°11'0 0.0
2019-Mar-23 17:00N 33°45' W 118°11'0 0.0
2019-Mar-23 16:30N 33°45' W 118°11'0 0.0
2019-Mar-23 15:56N 33°45' W 118°11'0 0.0
2019-Mar-23 15:26N 33°45' W 118°11'0 0.0
2019-Mar-23 14:59N 33°45' W 118°11'0 0.0
2019-Mar-23 14:29N 33°45' W 118°11'0 0.0
2019-Mar-23 13:59N 33°45' W 118°11'0 0.5
2019-Mar-23 13:31N 33°45' W 118°11'3 6.3
2019-Mar-23 13:01N 33°42' W 118°11'611.0
2019-Mar-23 12:31N 33°36' W 118°10'815.4
2019-Mar-23 12:00N 33°29' W 118°07'714.3
2019-Mar-23 11:30N 33°22' W 118°04'917.8
2019-Mar-23 11:00N 33°14' W 118°01'8507.9
2019-Mar-23 11:00N 33°06' W 118°00'2 3.6 310 / 151020.010.8 15.0 9.215.0
2019-Mar-23 10:30N 33°05' W 117°58'918.0
2019-Mar-23 10:00N 32°57' W 117°53'917.7
2019-Mar-23 09:30N 32°49' W 117°50'917.6
2019-Mar-23 09:00N 32°40' W 117°46'917.7
2019-Mar-23 08:30N 32°32' W 117°43'917.9
2019-Mar-23 08:00N 32°24' W 117°39'917.5
2019-Mar-23 07:30N 32°15' W 117°36'917.6
2019-Mar-23 07:00N 32°07' W 117°32'917.4
2019-Mar-23 06:31N 31°59' W 117°29'1019.3
2019-Mar-23 05:58N 31°49' W 117°25'30419.1
2019-Mar-22 14:00N 27°12' W 115°00'6917.2 300 / 321015.010.8 15.0 6.918.0
2019-Mar-22 10:00N 26°18' W 114°12'13719.6 330 / 351017.010.8 16.010.417.0
2019-Mar-22 03:00N 24°36' W 112°30'2929.1 310 / 251012.0 5.4 17.013.516.0
2019-Mar-22 02:00N 24°12' W 112°12'6115.3 310 / 251015.010.8
2019-Mar-21 22:00N 23°36' W 111°18'15722.4 300 / 251013.010.8 20.013.019.0
2019-Mar-21 15:00N 22°12' W 108°54'197 7.1 220 / 21011.010.8 21.017.820.0
2019-Mar-20 11:00N 20°48' W 105°42'156 6.2 020 / 101013.010.8 22.013.420.0
2019-Mar-19 10:00N 23°00' W 107°12'177 8.9 340 / 101012.010.8 21.010.021.0
2019-Mar-18 14:00N 23°12' W 110°24'55820.2 360 / 111011.010.8 18.012.720.0
2019-Mar-17 10:26N 30°28' W 116°53'1022.8
2019-Mar-17 10:00N 30°38' W 116°57'161132.3
2019-Mar-17 10:00N 30°24' W 116°48'2755.5 330 / 51014.010.8 15.0 9.216.0
2019-Mar-17 09:30N 30°48' W 117°01'1122.6
2019-Mar-17 09:01N 30°59' W 117°06'1122.2
2019-Mar-17 08:30N 31°09' W 117°10'1122.0
2019-Mar-17 08:01N 31°20' W 117°15'1122.0
2019-Mar-17 07:30N 31°30' W 117°19'1122.2
2019-Mar-17 07:00N 31°41' W 117°24'1122.3
2019-Mar-17 06:30N 31°51' W 117°28'1122.3
2019-Mar-17 06:01N 32°01' W 117°33'1122.2
2019-Mar-17 05:30N 32°12' W 117°37'1122.2
2019-Mar-17 05:00N 32°23' W 117°41'1121.9
2019-Mar-17 04:31N 32°33' W 117°46'1121.1
2019-Mar-17 04:01N 32°43' W 117°50'1020.9
2019-Mar-17 03:31N 32°52' W 117°55'1020.9
2019-Mar-17 03:01N 33°02' W 117°59'1020.8
2019-Mar-17 02:31N 33°12' W 118°03'1021.0
2019-Mar-17 02:01N 33°22' W 118°07'1021.0
2019-Mar-17 01:31N 33°32' W 118°12'714.3
2019-Mar-17 01:00N 33°39' W 118°12'510.9
2019-Mar-17 00:30N 33°44' W 118°11'1 1.7
2019-Mar-17 00:00N 33°45' W 118°11'0 0.0
2019-Mar-16 23:29N 33°45' W 118°11'0 0.0
2019-Mar-16 22:59N 33°45' W 118°11'0 0.0
2019-Mar-16 22:29N 33°45' W 118°11'0 0.0
2019-Mar-16 21:59N 33°45' W 118°11'0 0.0
2019-Mar-16 21:28N 33°45' W 118°11'0 0.0
2019-Mar-16 20:58N 33°45' W 118°11'0 0.0
2019-Mar-16 20:28N 33°45' W 118°11'0 0.0
2019-Mar-16 19:58N 33°45' W 118°11'0 0.0
2019-Mar-16 19:28N 33°45' W 118°11'0 0.0
2019-Mar-16 19:00N 33°45' W 118°11'0 0.0
2019-Mar-16 18:30N 33°45' W 118°11'0 0.0
2019-Mar-16 18:00N 33°45' W 118°11'0 0.0
2019-Mar-16 17:30N 33°45' W 118°11'0 0.0
2019-Mar-16 17:00N 33°45' W 118°11'0 0.0
2019-Mar-16 16:29N 33°45' W 118°11'0 0.0
2019-Mar-16 15:59N 33°45' W 118°11'0 0.0
2019-Mar-16 15:29N 33°45' W 118°11'0 0.0
2019-Mar-16 14:59N 33°45' W 118°11'0 0.0
2019-Mar-16 14:29N 33°45' W 118°11'0 0.0
2019-Mar-16 13:58N 33°45' W 118°11'0 0.4
2019-Mar-16 13:30N 33°45' W 118°11'3 6.6
2019-Mar-16 13:00N 33°42' W 118°11'611.3
2019-Mar-16 12:30N 33°36' W 118°10'815.3
2019-Mar-16 12:00N 33°29' W 118°07'713.2
2019-Mar-16 11:31N 33°23' W 118°04'918.2
2019-Mar-16 11:00N 33°14' W 118°00'918.5
2019-Mar-16 10:31N 33°05' W 117°57'918.5
2019-Mar-16 10:01N 32°57' W 117°53'918.3
2019-Mar-16 09:31N 32°48' W 117°49'918.4
2019-Mar-16 09:01N 32°39' W 117°46'917.9
2019-Mar-16 08:31N 32°31' W 117°42'917.8
2019-Mar-16 08:01N 32°22' W 117°39'917.6
2019-Mar-16 07:30N 32°14' W 117°35'917.5
2019-Mar-16 07:00N 32°06' W 117°32'917.5
2019-Mar-16 06:30N 31°58' W 117°28'917.4
2019-Mar-16 06:01N 31°50' W 117°25'917.4
2019-Mar-16 05:31N 31°41' W 117°22'917.4
2019-Mar-16 05:00N 31°33' W 117°18'1019.2
2019-Mar-16 04:30N 31°24' W 117°14'1019.4
2019-Mar-16 03:59N 31°15' W 117°10'919.2
2019-Mar-16 03:30N 31°06' W 117°07'1119.4
2019-Mar-16 02:56N 30°55' W 117°02'3920.3
2019-Mar-16 01:00N 30°18' W 116°48'20318.5 330 / 151012.010.8 16.012.415.0
2019-Mar-15 14:00N 27°18' W 115°00'27119.4 020 / 251010.010.8 16.010.415.0
2019-Mar-15 00:00N 23°54' W 111°42'   270 / 211010.010.8 18.012.718.0

Dump ship's entire track history